福岡空港の過去48時間の天気

福岡空港 (Fukuoka)

現在時刻: 1/23 13:16 JST (1/23 04:16 UTC) 以下の時間は現地時間です。

過去48時間のMETAR気象情報
時間 風向 風速(m/s) 視程 気温(℃) 湿度(%) 気圧(hPa) 天気現象
23 13:00 西北西 8 10km以上 5 56 1019
23 12:30 西北西 7 10km以上 5 61 1019
23 12:23 西北西 8 10km以上 5 61 1019
23 12:00 北西 8 10km以上 5 70 1019 弱いしゅう雨
23 11:30 西 7 10km以上 5 70 1019 周辺でしゅう雨
23 11:02 西北西 8 10km以上 5 70 1019 弱いしゅう雨
23 11:00 西北西 8 10km以上 5 70 1019 弱いしゅう雨
23 10:36 西 8 10km以上 7 53 1020 弱いしゅう雨
23 10:30 西 8 10km以上 7 53 1019 弱いしゅう雨
23 10:15 西 8 10km以上 7 53 1019
23 10:00 西北西 6 10km以上 7 53 1019
23 09:33 西 8 10km以上 7 57 1019
23 09:00 西北西 6 10km以上 7 61 1018
23 08:30 西北西 6 10km以上 7 57 1017
23 08:00 西 4 10km以上 7 61 1017
23 07:30 西 5 10km以上 7 61 1017
23 07:00 西 4 10km以上 7 61 1016
23 06:30 西 6 10km以上 7 66 1016
23 06:00 西 6 10km以上 8 61 1015
23 05:30 西 6 10km以上 8 61 1015
23 05:00 西 7 10km以上 8 61 1014
23 04:34 西北西 8 6,000m 9 62 1014
23 04:30 西 8 10km以上 9 62 1014
23 04:00 西 7 8,000m 9 66 1014
23 03:30 西 6 4,000m 10 62 1014 煙霧
23 03:04 3 3,700m 9 76 1014 煙霧
23 02:30 南南東 4 10km以上 6 87 1013
23 02:00 4 10km以上 7 81 1013
23 01:30 5 10km以上 6 87 1013
23 01:00 南南東 6 10km以上 6 87 1013
23 00:30 5 10km以上 6 87 1013 弱い雨
23 00:00 南南東 5 10km以上 5 87 1013
22 23:30 4 10km以上 5 87 1013
22 23:00 南南東 5 10km以上 5 87 1014
22 22:30 南南東 5 10km以上 5 87 1014
22 22:00 南南東 5 10km以上 5 87 1014
22 21:30 南南東 4 10km以上 5 81 1015
22 21:00 南南東 4 10km以上 5 81 1015
22 20:30 南南東 5 10km以上 5 81 1014
22 20:00 南南東 5 10km以上 5 87 1014
22 19:30 南南東 6 10km以上 6 81 1014
22 19:00 南南東 3 10km以上 6 81 1014
22 18:30 不定 1 10km以上 5 87 1014
22 18:00 不定 1 10km以上 7 76 1014 弱いしゅう雨
22 17:30 不定 1 10km以上 7 76 1014
22 17:00 北西 2 10km以上 7 76 1014
22 16:30 北北西 2 10km以上 8 71 1013
22 16:00 不定 1 10km以上 8 71 1013
22 15:30 不定 1 10km以上 7 76 1013
22 15:00 不定 2 10km以上 8 76 1013
22 14:30 不定 2 10km以上 7 76 1013
22 14:00 北東 2 10km以上 6 76 1013
22 13:30 北北東 3 10km以上 6 76 1013
22 13:00 東北東 2 10km以上 5 81 1013
22 12:30 東北東 3 10km以上 5 87 1013 弱いしゅう雨
22 12:00 2 10km以上 5 81 1013 弱いしゅう雨
22 11:30 東北東 3 10km以上 5 81 1014 弱いしゅう雨
22 11:00 不定 1 10km以上 5 87 1014 弱いしゅう雨
22 10:30 東北東 3 9,000m 5 87 1014 弱いしゅう雨
22 10:00 東北東 3 9,000m 5 87 1015 弱いしゅう雨
22 09:30 東北東 2 9,000m 5 87 1015 弱いしゅう雨
22 09:00 2 7,000m 5 87 1015 弱いしゅう雨
22 08:30 2 7,000m 5 87 1015 弱いしゅう雨
22 08:15 不定 1 5,000m 5 93 1015 しゅう雨 もや
22 08:00 不定 1 4,500m 5 93 1015 しゅう雨
22 07:30 2 4,000m 6 87 1016 しゅう雨
22 07:22 1 4,000m 6 87 1015 しゅう雨
22 07:15 2 6,000m 6 81 1015 しゅう雨
22 07:00 不定 1 7,000m 6 81 1015 弱い雨
22 06:30 南南西 2 8,000m 6 81 1015 弱い雨
22 06:00 東北東 3 10km以上 6 76 1015 弱い雨
22 05:30 北北東 5 10km以上 7 70 1014 弱い雨
22 05:00 北北西 3 10km以上 7 70 1014 弱い雨
22 04:30 不定 1 10km以上 7 61 1015
22 04:00 不定 1 10km以上 7 66 1015
22 03:30 不定 1 10km以上 6 70 1015
22 03:00 東南東 2 10km以上 7 66 1015
22 02:30 西南西 2 10km以上 7 61 1016
22 02:00 1 10km以上 6 70 1015
22 01:30 不定 1 10km以上 6 70 1016
22 01:00 不定 1 10km以上 6 70 1017
22 00:30 不定 1 10km以上 5 75 1017
22 00:00 静穏 0 10km以上 5 70 1017
21 23:30 不定 1 10km以上 7 66 1018
21 23:00 2 10km以上 6 65 1018
21 22:30 南東 1 10km以上 6 65 1018
21 22:00 南東 2 10km以上 8 57 1019
21 21:30 北東 3 10km以上 7 61 1019
21 21:00 東南東 2 10km以上 8 57 1019
21 20:30 東北東 2 10km以上 8 57 1019
21 20:00 東南東 2 10km以上 8 57 1019
21 19:30 2 10km以上 8 57 1019
21 19:00 2 10km以上 9 53 1020
21 18:30 東北東 2 10km以上 10 46 1020
21 18:00 3 10km以上 10 46 1020
21 17:30 北北東 4 10km以上 10 50 1020
21 17:00 北北東 4 10km以上 11 40 1019
21 16:30 北北東 4 10km以上 11 40 1019
21 16:00 4 10km以上 11 40 1019
21 15:30 5 10km以上 11 43 1019
21 15:00 6 10km以上 12 44 1019
21 14:30 6 10km以上 12 41 1019
21 14:00 5 10km以上 12 41 1020
21 13:30 6 10km以上 11 47 1020
RJFF 230400Z 30015KT 270V330 9999 FEW015 SCT025 BKN035 05/M03 Q1019 RMK 1CU015 3CU025 6CU035 A3011
RJFF 230330Z 29014G25KT 250V320 9999 FEW015 SCT025 BKN040 05/M02 Q1019 RMK 1CU015 3CU025 6CU040 A3010
RJFF 230323Z 30015G25KT 250V320 9999 FEW015 SCT025 BKN040 05/M02 Q1019 RMK 1CU015 3CU025 7CU040 A3010
RJFF 230300Z 31015KT 260V330 9999 -SHRA FEW015 SCT025 BKN040 05/M00 Q1019 RMK 1CU015 3CU025 7CU040 A3011
RJFF 230230Z 28013KT 230V310 9999 VCSH FEW020 SCT035 BKN045 05/00 Q1019 RMK 1CU020 3CU035 6CU045 A3011
RJFF 230202Z 30016G26KT 270V340 9999 -SHRA FEW025 SCT040 BKN045 05/00 Q1019 RMK 1CU025 3CU040 7CU045 A3012
RJFF 230200Z 30015KT 270V340 9999 -SHRA FEW025 SCT040 BKN045 05/00 Q1019 RMK 1CU025 3CU040 7CU045 A3012
RJFF 230136Z 28015G25KT 250V320 9999 -SHRA FEW025 SCT040 BKN050 07/M02 Q1020 RMK 1CU025 4CU040 7SC050 A3012
RJFF 230130Z 27015KT 9999 -SHRA FEW025 SCT040 BKN050 07/M02 Q1019 RMK 1CU025 4CU040 6SC050 A3012
RJFF 230115Z 28015G27KT 250V320 9999 FEW025 SCT035 BKN050 07/M02 Q1019 RMK 1CU025 3CU035 6SC050 A3011
RJFF 230100Z 30012KT 260V330 9999 FEW025 SCT035 BKN050 07/M02 Q1019 RMK 1CU025 3CU035 6SC050 A3010 MOD TURB OBS AT 0036Z 12NM SW STOUT BTN 16000FT AND 15000FT IN DES MOV SW E170
RJFF 230033Z 28015G25KT 250V310 9999 FEW025 SCT035 BKN050 07/M01 Q1019 RMK 1CU025 3CU035 5SC050 A3009
RJFF 230000Z 30011KT 270V330 9999 FEW030 SCT040 BKN050 07/M00 Q1018 RMK 1CU030 3CU040 5SC050 A3007
RJFF 222330Z 30012KT 260V330 9999 FEW030 07/M01 Q1017 RMK 1CU030 A3005
RJFF 222300Z 27007G18KT 200V360 9999 FEW030 SCT040 07/00 Q1017 RMK 1CU030 4CU040 A3004
RJFF 222230Z 26009KT 230V310 9999 FEW030 SCT040 07/00 Q1017 RMK 1CU030 4CU040 A3003
RJFF 222200Z 27008KT 210V320 9999 FEW030 SCT040 07/00 Q1016 RMK 1CU030 3CU040 A3002
RJFF 222130Z 28012KT 250V320 9999 FEW030 07/01 Q1016 RMK 1CU030 A3000
RJFF 222100Z 27011KT 230V350 9999 FEW030 08/01 Q1015 RMK 1CU030 A2999
RJFF 222030Z AUTO 27012KT 240V310 9999 NSC 08/01 Q1015 RMK A2997
RJFF 222000Z AUTO 28014G24KT 240V320 9999 FEW033 SCT100 08/01 Q1014 RMK A2997
RJFF 221934Z AUTO 29015G25KT 250V310 6000 BKN033 BKN040 BKN110 09/02 Q1014 RMK A2996
RJFF 221930Z AUTO 28016KT 9999 SCT033 BKN040 BKN110 09/02 Q1014 RMK A2995
RJFF 221900Z AUTO 28013KT 240V310 8000 BKN036 BKN043 BKN050 09/03 Q1014 RMK A2995
RJFF 221830Z AUTO 28012G24KT 240V320 4000 HZ FEW030 SCT036 BKN049 10/03 Q1014 RMK A2995
RJFF 221804Z AUTO VRB06KT 3700 HZ BKN030 BKN040 BKN044 09/05 Q1014 RMK A2994
RJFF 221730Z AUTO 16008KT 9999 FEW031 SCT038 BKN041 06/04 Q1013 RMK A2993
RJFF 221700Z AUTO 17008KT 9999 BKN030 BKN038 BKN044 07/04 Q1013 RMK A2993
RJFF 221630Z AUTO 17009KT 9999 BKN031 BKN050 OVC070 06/04 Q1013 RMK A2992
RJFF 221600Z AUTO 16011KT 9999 FEW038 SCT044 BKN050 06/04 Q1013 RMK A2992
RJFF 221530Z AUTO 17009KT 9999 -RA SCT036 BKN041 BKN047 06/04 Q1013 RMK A2992
RJFF 221500Z AUTO 16009KT 9999 FEW041 SCT060 BKN070 05/03 Q1013 RMK A2992
RJFF 221430Z AUTO 17008KT 9999 FEW047 BKN060 BKN070 05/03 Q1013 RMK A2994
RJFF 221400Z AUTO 16010KT 9999 FEW043 SCT060 BKN070 05/03 Q1014 RMK A2995
RJFF 221330Z 16010KT 9999 FEW030 BKN060 05/03 Q1014 RMK 1CU030 5SC060 A2995
RJFF 221300Z 16009KT 9999 FEW030 05/03 Q1014 RMK 1CU030 A2996
RJFF 221230Z 16007KT 9999 FEW030 SCT050 05/02 Q1015 RMK 1CU030 3SC050 A2997
RJFF 221200Z 16008KT 9999 FEW030 05/02 Q1015 RMK 1CU030 A2997
RJFF 221130Z 16010KT 9999 FEW030 05/02 Q1014 RMK 1CU030 A2996
RJFF 221100Z 16010KT 9999 FEW030 05/03 Q1014 RMK 1CU030 A2996
RJFF 221030Z 15011KT 9999 FEW030 SCT050 06/03 Q1014 RMK 1CU030 3SC050 A2997
RJFF 221000Z 15005KT 110V180 9999 FEW015 BKN050 06/03 Q1014 RMK 1CU015 5SC050 A2997
RJFF 220930Z VRB02KT 9999 FEW015 SCT040 05/03 Q1014 RMK 1CU015 3CU040 A2996
RJFF 220900Z VRB01KT 9999 -SHRA FEW015 SCT025 BKN040 07/03 Q1014 RMK 1CU015 3CU025 5CU040 A2995
RJFF 220830Z VRB02KT 9999 FEW015 SCT030 BKN040 07/03 Q1014 RMK 1CU015 3CU030 5CU040 A2996
RJFF 220800Z 32004KT 9999 FEW015 SCT030 BKN040 07/03 Q1014 RMK 1CU015 3CU030 5CU040 A2995
RJFF 220730Z 34003KT 290V090 9999 FEW015 SCT030 BKN045 08/03 Q1013 RMK 1CU015 3CU030 5SC045 A2994
RJFF 220700Z VRB02KT 9999 FEW015 SCT/// 08/03 Q1013 RMK 1CU015 A2993
RJFF 220630Z VRB01KT 9999 FEW010 07/03 Q1013 RMK 1CU010 A2992
RJFF 220600Z VRB03KT 9999 FEW010 08/04 Q1013 RMK 1CU010 A2992
RJFF 220530Z VRB03KT 9999 FEW015 07/03 Q1013 RMK 1CU015 A2992
RJFF 220500Z 04003KT 330V110 9999 FEW005 BKN060 06/02 Q1013 RMK 1ST005 5SC060 A2992
RJFF 220430Z 03005KT 360V100 9999 FEW005 BKN060 06/02 Q1013 RMK 1ST005 7SC060 A2992
RJFF 220400Z 06004KT 350V120 9999 FEW005 BKN060 05/02 Q1013 RMK 1ST005 7SC060 A2992
RJFF 220330Z 06005KT 010V110 9999 -SHRA FEW005 SCT040 BKN050 05/03 Q1013 RMK 1ST005 3CU040 7SC050 A2992
RJFF 220300Z 08004KT 030V120 9999 -SHRA FEW002 SCT035 BKN040 05/02 Q1013 RMK 1ST002 3CU035 6CU040 A2993
RJFF 220230Z 06006KT 020V090 9999 -SHRA FEW003 SCT015 BKN020 05/02 Q1014 RMK 1ST003 3CU015 6CU020 A2996
RJFF 220200Z VRB02KT 9999 -SHRA FEW003 SCT010 BKN015 05/03 Q1014 RMK 1ST003 3CU010 6CU015 A2996
RJFF 220130Z 07005KT 010V120 9000 -SHRA FEW002 BKN035 05/03 Q1014 RMK 1ST002 7CU035 A2997
RJFF 220100Z 06005KT 040V120 9000 -SHRA FEW007 SCT030 BKN035 05/03 Q1015 RMK 1ST007 3CU030 7CU035 A2998
RJFF 220030Z 06003KT 010V110 9000 -SHRA FEW007 SCT030 BKN035 05/03 Q1015 RMK 1ST007 3CU030 7CU035 A2999
RJFF 220000Z 08003KT 040V120 7000 -SHRA FEW006 SCT020 BKN030 05/03 Q1015 RMK 1ST006 3CU020 6CU030 A2999
RJFF 212330Z 08003KT 020V140 7000 -SHRA FEW008 SCT015 BKN025 05/03 Q1015 RMK 1ST008 3CU015 6CU025 A2999
RJFF 212315Z VRB02KT 5000 SHRA BR FEW008 SCT015 BKN025 05/04 Q1015 RMK 1ST008 3CU015 6CU025 A2999
RJFF 212300Z VRB02KT 4500 SHRA FEW008 SCT015 BKN020 05/04 Q1015 RMK 1ST008 3CU015 6CU020 A3000
RJFF 212230Z 18003KT 4000 SHRA FEW008 SCT020 BKN025 06/04 Q1016 RMK 1ST008 3CU020 6CU025 A3000
RJFF 212222Z 19002KT 4000 SHRA FEW008 SCT020 BKN025 06/04 Q1015 RMK 1ST008 3CU020 6CU025 A3000
RJFF 212215Z 17003KT 100V200 6000 SHRA FEW008 SCT020 BKN025 06/03 Q1015 RMK 1ST008 3CU020 5CU025 A3000
RJFF 212200Z VRB02KT 7000 -RA FEW008 SCT020 BKN030 06/03 Q1015 RMK 1ST008 3CU020 5CU030 A2999
RJFF 212130Z 21003KT 160V290 8000 -RA FEW020 BKN030 BKN040 06/03 Q1015 RMK 2CU020 5CU030 6CU040 A2999
RJFF 212100Z 07005KT 9999 -RA FEW020 BKN030 BKN080 06/02 Q1015 RMK 1CU020 5CU030 7AC080 A2998
RJFF 212030Z AUTO 03009KT 9999 -RA FEW023 BKN030 BKN035 07/02 Q1014 RMK A2997
RJFF 212000Z AUTO 33006KT 9999 -RA FEW041 BKN050 OVC060 07/02 Q1014 RMK A2997
RJFF 211930Z AUTO VRB02KT 9999 NSC 07/00 Q1015 RMK A2997
RJFF 211900Z AUTO VRB02KT 9999 NSC 07/01 Q1015 RMK A2997
RJFF 211830Z AUTO VRB01KT 9999 NSC 06/01 Q1015 RMK A2998
RJFF 211800Z AUTO 12004KT 090V170 9999 NSC 07/01 Q1015 RMK A3000
RJFF 211730Z AUTO 24004KT 9999 NSC 07/00 Q1016 RMK A3000
RJFF 211700Z AUTO 36002KT 9999 NSC 06/01 Q1015 RMK A3000
RJFF 211630Z AUTO VRB01KT 9999 NSC 06/01 Q1016 RMK A3002
RJFF 211600Z AUTO VRB02KT 9999 NSC 06/01 Q1017 RMK A3003
RJFF 211530Z AUTO VRB01KT 9999 NSC 05/01 Q1017 RMK A3005
RJFF 211500Z AUTO 00000KT 9999 NSC 05/00 Q1017 RMK A3006
RJFF 211430Z AUTO VRB01KT 9999 NSC 07/01 Q1018 RMK A3006
RJFF 211400Z AUTO 19003KT 150V220 9999 NSC 06/00 Q1018 RMK A3007
RJFF 211330Z 13002KT CAVOK 06/00 Q1018 RMK A3008
RJFF 211300Z 14003KT 050V180 CAVOK 08/M00 Q1019 RMK A3010
RJFF 211230Z 05005KT 020V110 CAVOK 07/M00 Q1019 RMK A3010
RJFF 211200Z 11003KT 060V150 CAVOK 08/M00 Q1019 RMK A3011
RJFF 211130Z 07004KT 020V120 CAVOK 08/M00 Q1019 RMK A3011
RJFF 211100Z 11004KT 050V140 CAVOK 08/00 Q1019 RMK A3011
RJFF 211030Z 08004KT 030V130 CAVOK 08/00 Q1019 RMK A3012
RJFF 211000Z 09003KT 050V130 CAVOK 09/00 Q1020 RMK A3012
RJFF 210930Z 07003KT 020V130 CAVOK 10/M01 Q1020 RMK A3012
RJFF 210900Z VRB05KT CAVOK 10/M01 Q1020 RMK A3013
RJFF 210830Z 02007KT 350V100 CAVOK 10/M00 Q1020 RMK A3012
RJFF 210800Z 02007KT 330V090 9999 FEW040 BKN/// 11/M02 Q1019
RJFF 210730Z 02007KT 340V090 9999 FEW040 BKN/// 11/M02 Q1019
RJFF 210700Z 01008KT 9999 FEW040 BKN/// 11/M02 Q1019
RJFF 210630Z 01009KT 9999 FEW040 SCT/// 11/M01 Q1019
RJFF 210600Z 01011KT 9999 FEW040 BKN/// 12/M00 Q1019
RJFF 210530Z 01011KT 350V050 9999 FEW040 BKN/// 12/M01 Q1019
RJFF 210500Z 36010KT 330V030 9999 FEW040 BKN/// 12/M01 Q1020
RJFF 210430Z 36011KT 9999 FEW040 SCT/// 11/M00 Q1020